sensor_id;sensor_type;location;lat;lon;timestamp;temperature;humidity
40828;DHT22;26549;50.918;5.338;2023-04-25T00:02:22;10.90;99.90
40828;DHT22;26549;50.918;5.338;2023-04-25T00:04:48;10.80;99.90
40828;DHT22;26549;50.918;5.338;2023-04-25T00:07:17;10.70;99.90
40828;DHT22;26549;50.918;5.338;2023-04-25T00:09:43;10.60;99.90
40828;DHT22;26549;50.918;5.338;2023-04-25T00:12:09;10.60;99.90
40828;DHT22;26549;50.918;5.338;2023-04-25T00:14:35;10.70;99.90
40828;DHT22;26549;50.918;5.338;2023-04-25T00:17:01;10.80;99.90
40828;DHT22;26549;50.918;5.338;2023-04-25T00:19:28;10.80;99.90
40828;DHT22;26549;50.918;5.338;2023-04-25T00:21:57;10.80;99.90
40828;DHT22;26549;50.918;5.338;2023-04-25T00:24:23;10.70;99.90
40828;DHT22;26549;50.918;5.338;2023-04-25T00:26:48;10.80;99.90
40828;DHT22;26549;50.918;5.338;2023-04-25T00:29:14;10.90;99.90
40828;DHT22;26549;50.918;5.338;2023-04-25T00:31:40;10.80;99.90
40828;DHT22;26549;50.918;5.338;2023-04-25T00:34:06;10.80;99.90
40828;DHT22;26549;50.918;5.338;2023-04-25T00:36:33;10.80;99.90
40828;DHT22;26549;50.918;5.338;2023-04-25T00:38:59;10.80;99.90
40828;DHT22;26549;50.918;5.338;2023-04-25T00:41:26;10.90;99.90
40828;DHT22;26549;50.918;5.338;2023-04-25T00:43:52;10.70;99.90
40828;DHT22;26549;50.918;5.338;2023-04-25T00:46:19;10.70;99.90
40828;DHT22;26549;50.918;5.338;2023-04-25T00:48:45;10.80;99.90
40828;DHT22;26549;50.918;5.338;2023-04-25T00:51:16;10.80;99.90
40828;DHT22;26549;50.918;5.338;2023-04-25T00:53:42;10.80;99.90
40828;DHT22;26549;50.918;5.338;2023-04-25T00:56:08;10.80;99.90
40828;DHT22;26549;50.918;5.338;2023-04-25T00:58:34;10.90;99.90
40828;DHT22;26549;50.918;5.338;2023-04-25T01:01:00;10.90;99.90
40828;DHT22;26549;50.918;5.338;2023-04-25T01:03:26;10.80;99.90
40828;DHT22;26549;50.918;5.338;2023-04-25T01:05:54;10.80;99.90
40828;DHT22;26549;50.918;5.338;2023-04-25T01:08:24;10.90;99.90
40828;DHT22;26549;50.918;5.338;2023-04-25T01:10:52;10.80;99.90
40828;DHT22;26549;50.918;5.338;2023-04-25T01:13:18;10.80;99.90
40828;DHT22;26549;50.918;5.338;2023-04-25T01:15:44;10.80;99.90
40828;DHT22;26549;50.918;5.338;2023-04-25T01:18:10;10.80;99.90
40828;DHT22;26549;50.918;5.338;2023-04-25T01:20:37;10.80;99.90
40828;DHT22;26549;50.918;5.338;2023-04-25T01:23:04;10.70;99.90
40828;DHT22;26549;50.918;5.338;2023-04-25T01:25:32;10.60;99.90
40828;DHT22;26549;50.918;5.338;2023-04-25T01:27:59;10.60;99.90
40828;DHT22;26549;50.918;5.338;2023-04-25T01:30:29;10.50;99.90
40828;DHT22;26549;50.918;5.338;2023-04-25T01:32:59;10.60;99.90
40828;DHT22;26549;50.918;5.338;2023-04-25T01:35:25;10.70;99.90
40828;DHT22;26549;50.918;5.338;2023-04-25T01:37:51;10.70;99.90
40828;DHT22;26549;50.918;5.338;2023-04-25T01:40:17;10.70;99.90
40828;DHT22;26549;50.918;5.338;2023-04-25T01:42:44;10.60;99.90
40828;DHT22;26549;50.918;5.338;2023-04-25T01:45:11;10.60;99.90
40828;DHT22;26549;50.918;5.338;2023-04-25T01:47:38;10.50;99.90
40828;DHT22;26549;50.918;5.338;2023-04-25T01:50:06;10.60;99.90
40828;DHT22;26549;50.918;5.338;2023-04-25T01:52:32;10.60;99.90
40828;DHT22;26549;50.918;5.338;2023-04-25T01:54:59;10.60;99.90
40828;DHT22;26549;50.918;5.338;2023-04-25T01:57:25;10.60;99.90
40828;DHT22;26549;50.918;5.338;2023-04-25T01:59:50;10.60;99.90
40828;DHT22;26549;50.918;5.338;2023-04-25T02:02:17;10.50;99.90
40828;DHT22;26549;50.918;5.338;2023-04-25T02:04:42;10.50;99.90
40828;DHT22;26549;50.918;5.338;2023-04-25T02:07:08;10.50;99.90
40828;DHT22;26549;50.918;5.338;2023-04-25T02:09:34;10.50;99.90
40828;DHT22;26549;50.918;5.338;2023-04-25T02:12:00;10.50;99.90
40828;DHT22;26549;50.918;5.338;2023-04-25T02:14:25;10.60;99.90
40828;DHT22;26549;50.918;5.338;2023-04-25T02:16:52;10.50;99.90
40828;DHT22;26549;50.918;5.338;2023-04-25T02:19:17;10.50;99.90
40828;DHT22;26549;50.918;5.338;2023-04-25T02:21:43;10.50;99.90
40828;DHT22;26549;50.918;5.338;2023-04-25T02:24:10;10.40;99.90
40828;DHT22;26549;50.918;5.338;2023-04-25T02:26:36;10.40;99.90
40828;DHT22;26549;50.918;5.338;2023-04-25T02:29:02;10.40;99.90
40828;DHT22;26549;50.918;5.338;2023-04-25T02:31:27;10.50;99.90
40828;DHT22;26549;50.918;5.338;2023-04-25T02:33:54;10.60;99.90
40828;DHT22;26549;50.918;5.338;2023-04-25T02:36:20;10.50;99.90
40828;DHT22;26549;50.918;5.338;2023-04-25T02:38:46;10.60;99.90
40828;DHT22;26549;50.918;5.338;2023-04-25T02:41:12;10.60;99.90
40828;DHT22;26549;50.918;5.338;2023-04-25T02:43:37;10.50;99.90
40828;DHT22;26549;50.918;5.338;2023-04-25T02:46:03;10.60;99.90
40828;DHT22;26549;50.918;5.338;2023-04-25T02:48:29;10.50;99.90
40828;DHT22;26549;50.918;5.338;2023-04-25T02:50:54;10.50;99.90
40828;DHT22;26549;50.918;5.338;2023-04-25T02:53:20;10.50;99.90
40828;DHT22;26549;50.918;5.338;2023-04-25T02:55:46;10.50;99.90
40828;DHT22;26549;50.918;5.338;2023-04-25T02:58:12;10.50;99.90
40828;DHT22;26549;50.918;5.338;2023-04-25T03:00:38;10.40;99.90
40828;DHT22;26549;50.918;5.338;2023-04-25T03:03:03;10.40;99.90
40828;DHT22;26549;50.918;5.338;2023-04-25T03:05:29;10.50;99.90
40828;DHT22;26549;50.918;5.338;2023-04-25T03:07:55;10.40;99.90
40828;DHT22;26549;50.918;5.338;2023-04-25T03:10:21;10.40;99.90
40828;DHT22;26549;50.918;5.338;2023-04-25T03:12:47;10.50;99.90
40828;DHT22;26549;50.918;5.338;2023-04-25T03:15:12;10.40;99.90
40828;DHT22;26549;50.918;5.338;2023-04-25T03:17:38;10.40;99.90
40828;DHT22;26549;50.918;5.338;2023-04-25T03:20:04;10.40;99.90
40828;DHT22;26549;50.918;5.338;2023-04-25T03:22:31;10.50;99.90
40828;DHT22;26549;50.918;5.338;2023-04-25T03:24:57;10.40;99.90
40828;DHT22;26549;50.918;5.338;2023-04-25T03:27:23;10.30;99.90
40828;DHT22;26549;50.918;5.338;2023-04-25T03:29:49;10.30;99.90
40828;DHT22;26549;50.918;5.338;2023-04-25T03:32:15;10.30;99.90
40828;DHT22;26549;50.918;5.338;2023-04-25T03:34:40;10.30;99.90
40828;DHT22;26549;50.918;5.338;2023-04-25T03:37:06;10.30;99.90
40828;DHT22;26549;50.918;5.338;2023-04-25T03:39:32;10.30;99.90
40828;DHT22;26549;50.918;5.338;2023-04-25T03:41:58;10.20;99.90
40828;DHT22;26549;50.918;5.338;2023-04-25T03:44:24;10.00;99.90
40828;DHT22;26549;50.918;5.338;2023-04-25T03:46:50;10.00;99.90
40828;DHT22;26549;50.918;5.338;2023-04-25T03:49:16;10.00;99.90
40828;DHT22;26549;50.918;5.338;2023-04-25T03:51:42;10.00;99.90
40828;DHT22;26549;50.918;5.338;2023-04-25T03:54:07;9.90;99.90
40828;DHT22;26549;50.918;5.338;2023-04-25T03:56:33;9.90;99.90
40828;DHT22;26549;50.918;5.338;2023-04-25T03:58:59;9.90;99.90
40828;DHT22;26549;50.918;5.338;2023-04-25T04:01:25;9.70;99.90
40828;DHT22;26549;50.918;5.338;2023-04-25T04:03:50;9.70;99.90
40828;DHT22;26549;50.918;5.338;2023-04-25T04:06:16;9.70;99.90
40828;DHT22;26549;50.918;5.338;2023-04-25T04:08:42;9.90;99.90
40828;DHT22;26549;50.918;5.338;2023-04-25T04:11:08;9.90;99.90
40828;DHT22;26549;50.918;5.338;2023-04-25T04:13:34;9.90;99.90
40828;DHT22;26549;50.918;5.338;2023-04-25T04:16:00;9.70;99.90
40828;DHT22;26549;50.918;5.338;2023-04-25T04:18:25;9.60;99.90
40828;DHT22;26549;50.918;5.338;2023-04-25T04:20:51;9.60;99.90
40828;DHT22;26549;50.918;5.338;2023-04-25T04:23:17;9.50;99.90
40828;DHT22;26549;50.918;5.338;2023-04-25T04:25:43;9.10;99.90
40828;DHT22;26549;50.918;5.338;2023-04-25T04:28:08;9.00;99.90
40828;DHT22;26549;50.918;5.338;2023-04-25T04:30:36;9.00;99.90
40828;DHT22;26549;50.918;5.338;2023-04-25T04:33:03;9.00;99.90
40828;DHT22;26549;50.918;5.338;2023-04-25T04:35:29;8.80;99.90
40828;DHT22;26549;50.918;5.338;2023-04-25T04:37:54;8.90;99.90
40828;DHT22;26549;50.918;5.338;2023-04-25T04:40:21;9.10;99.90
40828;DHT22;26549;50.918;5.338;2023-04-25T04:42:47;9.20;99.90
40828;DHT22;26549;50.918;5.338;2023-04-25T04:45:14;9.10;99.90
40828;DHT22;26549;50.918;5.338;2023-04-25T04:47:42;9.10;99.90
40828;DHT22;26549;50.918;5.338;2023-04-25T04:50:09;9.20;99.90
40828;DHT22;26549;50.918;5.338;2023-04-25T04:52:37;9.20;99.90
40828;DHT22;26549;50.918;5.338;2023-04-25T04:55:04;9.20;99.90
40828;DHT22;26549;50.918;5.338;2023-04-25T04:57:31;9.20;99.90
40828;DHT22;26549;50.918;5.338;2023-04-25T04:59:58;9.30;99.90
40828;DHT22;26549;50.918;5.338;2023-04-25T05:02:24;9.30;99.90
40828;DHT22;26549;50.918;5.338;2023-04-25T05:04:50;9.30;99.90
40828;DHT22;26549;50.918;5.338;2023-04-25T05:07:17;9.40;99.90
40828;DHT22;26549;50.918;5.338;2023-04-25T05:09:43;9.50;99.90
40828;DHT22;26549;50.918;5.338;2023-04-25T05:12:09;9.50;99.90
40828;DHT22;26549;50.918;5.338;2023-04-25T05:14:35;9.70;99.90
40828;DHT22;26549;50.918;5.338;2023-04-25T05:17:01;9.60;99.90
40828;DHT22;26549;50.918;5.338;2023-04-25T05:19:29;9.70;99.90
40828;DHT22;26549;50.918;5.338;2023-04-25T05:21:54;9.70;99.90
40828;DHT22;26549;50.918;5.338;2023-04-25T05:24:23;9.80;99.90
40828;DHT22;26549;50.918;5.338;2023-04-25T05:26:48;10.00;99.90
40828;DHT22;26549;50.918;5.338;2023-04-25T05:29:14;9.90;99.90
40828;DHT22;26549;50.918;5.338;2023-04-25T05:31:40;9.90;99.90
40828;DHT22;26549;50.918;5.338;2023-04-25T05:34:06;10.00;99.90
40828;DHT22;26549;50.918;5.338;2023-04-25T05:36:32;10.00;99.90
40828;DHT22;26549;50.918;5.338;2023-04-25T05:38:58;10.10;99.90
40828;DHT22;26549;50.918;5.338;2023-04-25T05:41:23;10.20;99.90
40828;DHT22;26549;50.918;5.338;2023-04-25T05:43:49;10.20;99.90
40828;DHT22;26549;50.918;5.338;2023-04-25T05:46:16;10.10;99.90
40828;DHT22;26549;50.918;5.338;2023-04-25T05:48:45;10.10;99.90
40828;DHT22;26549;50.918;5.338;2023-04-25T05:51:11;10.10;99.90
40828;DHT22;26549;50.918;5.338;2023-04-25T05:53:36;10.20;99.90
40828;DHT22;26549;50.918;5.338;2023-04-25T05:56:02;10.20;99.90
40828;DHT22;26549;50.918;5.338;2023-04-25T05:58:28;10.20;99.90
40828;DHT22;26549;50.918;5.338;2023-04-25T06:00:54;10.10;99.90
40828;DHT22;26549;50.918;5.338;2023-04-25T06:03:22;10.20;99.90
40828;DHT22;26549;50.918;5.338;2023-04-25T06:05:49;10.10;99.90
40828;DHT22;26549;50.918;5.338;2023-04-25T06:08:15;10.10;99.90
40828;DHT22;26549;50.918;5.338;2023-04-25T06:10:40;10.20;99.90
40828;DHT22;26549;50.918;5.338;2023-04-25T06:13:06;10.20;99.90
40828;DHT22;26549;50.918;5.338;2023-04-25T06:15:33;10.20;99.90
40828;DHT22;26549;50.918;5.338;2023-04-25T06:17:59;10.20;99.90
40828;DHT22;26549;50.918;5.338;2023-04-25T06:20:24;10.30;99.90
40828;DHT22;26549;50.918;5.338;2023-04-25T06:22:51;10.20;99.90
40828;DHT22;26549;50.918;5.338;2023-04-25T06:25:17;10.20;99.90
40828;DHT22;26549;50.918;5.338;2023-04-25T06:27:43;10.30;99.90
40828;DHT22;26549;50.918;5.338;2023-04-25T06:30:09;10.40;99.90
40828;DHT22;26549;50.918;5.338;2023-04-25T06:32:38;10.40;99.90
40828;DHT22;26549;50.918;5.338;2023-04-25T06:35:04;10.40;99.90
40828;DHT22;26549;50.918;5.338;2023-04-25T06:37:30;10.20;99.90
40828;DHT22;26549;50.918;5.338;2023-04-25T06:39:56;10.40;99.90
40828;DHT22;26549;50.918;5.338;2023-04-25T06:42:22;10.40;99.90
40828;DHT22;26549;50.918;5.338;2023-04-25T06:44:49;10.30;99.90
40828;DHT22;26549;50.918;5.338;2023-04-25T06:47:15;10.20;99.90
40828;DHT22;26549;50.918;5.338;2023-04-25T06:49:40;10.20;99.90
40828;DHT22;26549;50.918;5.338;2023-04-25T06:52:07;10.30;99.90
40828;DHT22;26549;50.918;5.338;2023-04-25T06:54:33;10.40;99.90
40828;DHT22;26549;50.918;5.338;2023-04-25T06:56:59;10.60;99.90
40828;DHT22;26549;50.918;5.338;2023-04-25T06:59:26;10.70;99.90
40828;DHT22;26549;50.918;5.338;2023-04-25T07:01:53;10.60;99.90
40828;DHT22;26549;50.918;5.338;2023-04-25T07:04:19;10.60;99.90
40828;DHT22;26549;50.918;5.338;2023-04-25T07:06:44;10.50;99.90
40828;DHT22;26549;50.918;5.338;2023-04-25T07:09:12;10.30;99.90
40828;DHT22;26549;50.918;5.338;2023-04-25T07:11:39;10.40;99.90
40828;DHT22;26549;50.918;5.338;2023-04-25T07:14:05;10.40;99.90
40828;DHT22;26549;50.918;5.338;2023-04-25T07:16:31;10.60;99.90
40828;DHT22;26549;50.918;5.338;2023-04-25T07:18:56;10.60;99.90
40828;DHT22;26549;50.918;5.338;2023-04-25T07:21:22;10.70;99.90
40828;DHT22;26549;50.918;5.338;2023-04-25T07:23:48;10.80;99.90
40828;DHT22;26549;50.918;5.338;2023-04-25T07:26:14;11.00;99.90
40828;DHT22;26549;50.918;5.338;2023-04-25T07:28:39;11.10;99.90
40828;DHT22;26549;50.918;5.338;2023-04-25T07:31:05;11.10;99.90
40828;DHT22;26549;50.918;5.338;2023-04-25T07:33:31;11.30;99.90
40828;DHT22;26549;50.918;5.338;2023-04-25T07:35:57;11.30;99.90
40828;DHT22;26549;50.918;5.338;2023-04-25T07:38:23;11.20;99.90
40828;DHT22;26549;50.918;5.338;2023-04-25T07:40:49;11.20;99.90
40828;DHT22;26549;50.918;5.338;2023-04-25T07:43:15;11.40;99.90
40828;DHT22;26549;50.918;5.338;2023-04-25T07:45:45;11.60;99.90
40828;DHT22;26549;50.918;5.338;2023-04-25T07:48:11;11.60;99.90
40828;DHT22;26549;50.918;5.338;2023-04-25T07:50:36;11.60;99.90
40828;DHT22;26549;50.918;5.338;2023-04-25T07:53:02;11.30;99.90
40828;DHT22;26549;50.918;5.338;2023-04-25T07:55:28;11.30;99.90
40828;DHT22;26549;50.918;5.338;2023-04-25T07:57:54;11.20;99.90
40828;DHT22;26549;50.918;5.338;2023-04-25T08:00:20;11.20;99.90
40828;DHT22;26549;50.918;5.338;2023-04-25T08:02:46;11.40;99.90
40828;DHT22;26549;50.918;5.338;2023-04-25T08:05:14;11.10;99.90
40828;DHT22;26549;50.918;5.338;2023-04-25T08:07:41;10.90;99.90
40828;DHT22;26549;50.918;5.338;2023-04-25T08:10:07;10.80;99.90
40828;DHT22;26549;50.918;5.338;2023-04-25T08:12:33;10.80;99.90
40828;DHT22;26549;50.918;5.338;2023-04-25T08:14:59;10.60;99.90
40828;DHT22;26549;50.918;5.338;2023-04-25T08:17:25;10.60;99.90
40828;DHT22;26549;50.918;5.338;2023-04-25T08:19:51;10.40;99.90
40828;DHT22;26549;50.918;5.338;2023-04-25T08:22:17;10.50;99.90
40828;DHT22;26549;50.918;5.338;2023-04-25T08:24:42;10.70;99.90
40828;DHT22;26549;50.918;5.338;2023-04-25T08:27:08;10.60;99.90
40828;DHT22;26549;50.918;5.338;2023-04-25T08:29:34;10.60;99.90
40828;DHT22;26549;50.918;5.338;2023-04-25T08:32:00;10.80;99.90
40828;DHT22;26549;50.918;5.338;2023-04-25T08:34:26;10.80;99.90
40828;DHT22;26549;50.918;5.338;2023-04-25T08:36:52;10.90;99.90
40828;DHT22;26549;50.918;5.338;2023-04-25T08:39:18;11.00;99.90
40828;DHT22;26549;50.918;5.338;2023-04-25T08:41:45;10.80;99.90
40828;DHT22;26549;50.918;5.338;2023-04-25T08:44:11;10.60;99.90
40828;DHT22;26549;50.918;5.338;2023-04-25T08:46:40;10.80;99.90
40828;DHT22;26549;50.918;5.338;2023-04-25T08:49:07;10.90;99.90
40828;DHT22;26549;50.918;5.338;2023-04-25T08:51:33;11.00;99.90
40828;DHT22;26549;50.918;5.338;2023-04-25T08:54:10;11.10;99.90
40828;DHT22;26549;50.918;5.338;2023-04-25T08:56:45;11.10;99.80
40828;DHT22;26549;50.918;5.338;2023-04-25T08:59:12;11.30;99.90
40828;DHT22;26549;50.918;5.338;2023-04-25T09:01:38;11.00;99.90
40828;DHT22;26549;50.918;5.338;2023-04-25T09:04:04;10.80;99.90
40828;DHT22;26549;50.918;5.338;2023-04-25T09:06:30;10.80;99.90
40828;DHT22;26549;50.918;5.338;2023-04-25T09:09:07;11.00;99.90
40828;DHT22;26549;50.918;5.338;2023-04-25T09:11:34;11.20;99.90
40828;DHT22;26549;50.918;5.338;2023-04-25T09:14:21;11.10;99.90
40828;DHT22;26549;50.918;5.338;2023-04-25T09:21:51;11.50;99.80
40828;DHT22;26549;50.918;5.338;2023-04-25T09:24:33;11.50;99.70
40828;DHT22;26549;50.918;5.338;2023-04-25T09:27:02;11.50;99.60
40828;DHT22;26549;50.918;5.338;2023-04-25T09:29:34;11.00;99.90
40828;DHT22;26549;50.918;5.338;2023-04-25T09:32:18;11.30;99.90
40828;DHT22;26549;50.918;5.338;2023-04-25T09:34:56;11.40;99.80
40828;DHT22;26549;50.918;5.338;2023-04-25T09:37:22;11.20;99.60
40828;DHT22;26549;50.918;5.338;2023-04-25T09:39:50;11.30;99.90
40828;DHT22;26549;50.918;5.338;2023-04-25T09:42:16;11.50;99.70
40828;DHT22;26549;50.918;5.338;2023-04-25T09:44:46;11.30;99.90
40828;DHT22;26549;50.918;5.338;2023-04-25T09:47:13;11.60;99.60
40828;DHT22;26549;50.918;5.338;2023-04-25T09:49:42;11.80;99.30
40828;DHT22;26549;50.918;5.338;2023-04-25T09:52:08;12.00;98.20
40828;DHT22;26549;50.918;5.338;2023-04-25T09:54:35;11.90;97.10
40828;DHT22;26549;50.918;5.338;2023-04-25T09:59:49;12.20;97.20
40828;DHT22;26549;50.918;5.338;2023-04-25T10:02:20;12.40;97.80
40828;DHT22;26549;50.918;5.338;2023-04-25T10:04:49;12.70;96.80
40828;DHT22;26549;50.918;5.338;2023-04-25T10:07:16;12.70;96.50
40828;DHT22;26549;50.918;5.338;2023-04-25T10:09:44;12.30;96.10
40828;DHT22;26549;50.918;5.338;2023-04-25T10:12:13;12.50;96.30
40828;DHT22;26549;50.918;5.338;2023-04-25T10:14:40;12.70;97.00
40828;DHT22;26549;50.918;5.338;2023-04-25T10:17:07;12.80;95.30
40828;DHT22;26549;50.918;5.338;2023-04-25T10:19:35;12.60;95.30
40828;DHT22;26549;50.918;5.338;2023-04-25T10:22:07;11.90;95.70
40828;DHT22;26549;50.918;5.338;2023-04-25T10:24:35;11.60;96.70
40828;DHT22;26549;50.918;5.338;2023-04-25T10:27:02;11.90;96.90
40828;DHT22;26549;50.918;5.338;2023-04-25T10:29:28;11.90;96.50
40828;DHT22;26549;50.918;5.338;2023-04-25T10:31:54;12.10;96.20
40828;DHT22;26549;50.918;5.338;2023-04-25T10:34:24;12.30;95.90
40828;DHT22;26549;50.918;5.338;2023-04-25T10:37:03;12.50;97.10
40828;DHT22;26549;50.918;5.338;2023-04-25T10:39:29;12.20;98.30
40828;DHT22;26549;50.918;5.338;2023-04-25T10:41:58;11.50;99.10
40828;DHT22;26549;50.918;5.338;2023-04-25T10:44:28;11.20;99.60
40828;DHT22;26549;50.918;5.338;2023-04-25T10:46:59;11.00;98.60
40828;DHT22;26549;50.918;5.338;2023-04-25T10:49:35;10.60;99.10
40828;DHT22;26549;50.918;5.338;2023-04-25T10:52:15;10.70;99.30
40828;DHT22;26549;50.918;5.338;2023-04-25T10:54:49;11.00;98.10
40828;DHT22;26549;50.918;5.338;2023-04-25T11:00:09;11.40;95.40
40828;DHT22;26549;50.918;5.338;2023-04-25T11:05:34;11.70;95.70
40828;DHT22;26549;50.918;5.338;2023-04-25T11:08:00;11.50;95.90
40828;DHT22;26549;50.918;5.338;2023-04-25T11:10:28;11.60;95.50
40828;DHT22;26549;50.918;5.338;2023-04-25T11:12:54;11.90;95.30
40828;DHT22;26549;50.918;5.338;2023-04-25T11:15:19;12.00;94.00
40828;DHT22;26549;50.918;5.338;2023-04-25T11:17:47;11.80;93.20
40828;DHT22;26549;50.918;5.338;2023-04-25T11:20:13;11.70;93.70
40828;DHT22;26549;50.918;5.338;2023-04-25T11:22:46;12.20;93.90
40828;DHT22;26549;50.918;5.338;2023-04-25T11:25:14;12.30;92.60
40828;DHT22;26549;50.918;5.338;2023-04-25T11:27:57;12.60;92.80
40828;DHT22;26549;50.918;5.338;2023-04-25T11:30:25;12.30;92.20
40828;DHT22;26549;50.918;5.338;2023-04-25T11:32:52;12.40;92.10
40828;DHT22;26549;50.918;5.338;2023-04-25T11:35:19;12.60;92.30
40828;DHT22;26549;50.918;5.338;2023-04-25T11:37:48;12.40;93.20
40828;DHT22;26549;50.918;5.338;2023-04-25T11:40:17;12.50;93.60
40828;DHT22;26549;50.918;5.338;2023-04-25T11:42:47;12.30;92.60
40828;DHT22;26549;50.918;5.338;2023-04-25T11:45:13;12.20;93.50
40828;DHT22;26549;50.918;5.338;2023-04-25T11:47:40;12.30;94.00
40828;DHT22;26549;50.918;5.338;2023-04-25T11:50:08;12.00;94.10
40828;DHT22;26549;50.918;5.338;2023-04-25T11:52:37;12.20;93.30
40828;DHT22;26549;50.918;5.338;2023-04-25T11:55:08;12.40;94.40
40828;DHT22;26549;50.918;5.338;2023-04-25T11:57:35;12.40;92.60
40828;DHT22;26549;50.918;5.338;2023-04-25T12:00:12;12.20;93.90
40828;DHT22;26549;50.918;5.338;2023-04-25T12:02:46;12.30;93.50
40828;DHT22;26549;50.918;5.338;2023-04-25T12:05:13;12.20;93.00
40828;DHT22;26549;50.918;5.338;2023-04-25T12:07:39;12.30;91.80
40828;DHT22;26549;50.918;5.338;2023-04-25T12:10:11;12.50;91.70
40828;DHT22;26549;50.918;5.338;2023-04-25T12:12:38;12.60;91.70
40828;DHT22;26549;50.918;5.338;2023-04-25T12:15:14;12.90;92.50
40828;DHT22;26549;50.918;5.338;2023-04-25T12:17:42;13.10;92.90
40828;DHT22;26549;50.918;5.338;2023-04-25T12:20:19;13.10;93.30
40828;DHT22;26549;50.918;5.338;2023-04-25T12:22:47;13.40;92.60
40828;DHT22;26549;50.918;5.338;2023-04-25T12:25:42;13.40;91.70
40828;DHT22;26549;50.918;5.338;2023-04-25T12:28:20;13.10;92.10
40828;DHT22;26549;50.918;5.338;2023-04-25T12:31:02;12.90;94.70
40828;DHT22;26549;50.918;5.338;2023-04-25T12:33:33;12.70;95.70
40828;DHT22;26549;50.918;5.338;2023-04-25T12:36:00;12.30;96.10
40828;DHT22;26549;50.918;5.338;2023-04-25T12:38:36;12.00;96.20
40828;DHT22;26549;50.918;5.338;2023-04-25T12:41:02;11.90;96.50
40828;DHT22;26549;50.918;5.338;2023-04-25T12:43:28;11.80;96.50
40828;DHT22;26549;50.918;5.338;2023-04-25T12:45:55;11.80;96.50
40828;DHT22;26549;50.918;5.338;2023-04-25T12:48:21;11.60;97.20
40828;DHT22;26549;50.918;5.338;2023-04-25T12:50:48;11.90;96.70
40828;DHT22;26549;50.918;5.338;2023-04-25T12:53:22;11.80;96.50
40828;DHT22;26549;50.918;5.338;2023-04-25T12:55:49;11.90;96.60
40828;DHT22;26549;50.918;5.338;2023-04-25T12:58:16;12.00;96.10
40828;DHT22;26549;50.918;5.338;2023-04-25T13:00:42;12.20;95.20
40828;DHT22;26549;50.918;5.338;2023-04-25T13:03:09;12.40;95.10
40828;DHT22;26549;50.918;5.338;2023-04-25T13:05:36;12.40;95.60
40828;DHT22;26549;50.918;5.338;2023-04-25T13:08:02;12.30;96.10
40828;DHT22;26549;50.918;5.338;2023-04-25T13:10:28;12.20;94.00
40828;DHT22;26549;50.918;5.338;2023-04-25T13:12:54;12.10;95.20
40828;DHT22;26549;50.918;5.338;2023-04-25T13:15:20;12.40;95.60
40828;DHT22;26549;50.918;5.338;2023-04-25T13:17:45;12.60;93.40
40828;DHT22;26549;50.918;5.338;2023-04-25T13:20:12;12.60;93.30
40828;DHT22;26549;50.918;5.338;2023-04-25T13:22:39;12.60;93.60
40828;DHT22;26549;50.918;5.338;2023-04-25T13:25:06;12.80;93.30
40828;DHT22;26549;50.918;5.338;2023-04-25T13:27:33;12.80;93.90
40828;DHT22;26549;50.918;5.338;2023-04-25T13:30:05;12.70;94.00
40828;DHT22;26549;50.918;5.338;2023-04-25T13:32:35;12.60;94.60
40828;DHT22;26549;50.918;5.338;2023-04-25T13:35:05;12.60;94.90
40828;DHT22;26549;50.918;5.338;2023-04-25T13:37:31;12.50;95.30
40828;DHT22;26549;50.918;5.338;2023-04-25T13:40:06;12.60;96.30
40828;DHT22;26549;50.918;5.338;2023-04-25T13:42:34;12.50;96.60
40828;DHT22;26549;50.918;5.338;2023-04-25T13:45:00;12.60;95.80
40828;DHT22;26549;50.918;5.338;2023-04-25T13:47:26;12.80;95.40
40828;DHT22;26549;50.918;5.338;2023-04-25T13:49:52;12.50;95.50
40828;DHT22;26549;50.918;5.338;2023-04-25T13:52:18;12.60;95.30
40828;DHT22;26549;50.918;5.338;2023-04-25T13:54:44;13.00;93.30
40828;DHT22;26549;50.918;5.338;2023-04-25T13:57:10;13.00;93.20
40828;DHT22;26549;50.918;5.338;2023-04-25T13:59:37;13.20;93.60
40828;DHT22;26549;50.918;5.338;2023-04-25T14:02:03;13.20;93.90
40828;DHT22;26549;50.918;5.338;2023-04-25T14:04:28;13.50;92.80
40828;DHT22;26549;50.918;5.338;2023-04-25T14:06:55;13.30;93.30
40828;DHT22;26549;50.918;5.338;2023-04-25T14:09:21;13.00;93.80
40828;DHT22;26549;50.918;5.338;2023-04-25T14:11:51;12.80;93.20
40828;DHT22;26549;50.918;5.338;2023-04-25T14:14:21;12.70;93.60
40828;DHT22;26549;50.918;5.338;2023-04-25T14:16:48;12.90;92.90
40828;DHT22;26549;50.918;5.338;2023-04-25T14:19:14;12.50;93.90
40828;DHT22;26549;50.918;5.338;2023-04-25T14:21:40;12.20;94.60
40828;DHT22;26549;50.918;5.338;2023-04-25T14:24:06;12.20;94.50
40828;DHT22;26549;50.918;5.338;2023-04-25T14:26:35;12.40;93.60
40828;DHT22;26549;50.918;5.338;2023-04-25T14:29:03;12.20;94.40
40828;DHT22;26549;50.918;5.338;2023-04-25T14:31:28;12.10;93.70
40828;DHT22;26549;50.918;5.338;2023-04-25T14:33:54;12.20;93.60
40828;DHT22;26549;50.918;5.338;2023-04-25T14:36:20;12.20;92.20
40828;DHT22;26549;50.918;5.338;2023-04-25T14:38:46;12.30;92.50
40828;DHT22;26549;50.918;5.338;2023-04-25T14:41:12;12.60;93.20
40828;DHT22;26549;50.918;5.338;2023-04-25T14:43:38;12.50;93.10
40828;DHT22;26549;50.918;5.338;2023-04-25T14:46:06;12.00;92.30
40828;DHT22;26549;50.918;5.338;2023-04-25T14:48:32;12.10;93.20
40828;DHT22;26549;50.918;5.338;2023-04-25T14:51:01;12.20;93.50
40828;DHT22;26549;50.918;5.338;2023-04-25T14:53:27;12.20;93.60
40828;DHT22;26549;50.918;5.338;2023-04-25T14:55:53;12.30;93.90
40828;DHT22;26549;50.918;5.338;2023-04-25T14:58:20;12.30;93.50
40828;DHT22;26549;50.918;5.338;2023-04-25T15:00:46;12.30;93.60
40828;DHT22;26549;50.918;5.338;2023-04-25T15:03:12;12.50;93.60
40828;DHT22;26549;50.918;5.338;2023-04-25T15:05:42;12.70;93.10
40828;DHT22;26549;50.918;5.338;2023-04-25T15:08:08;13.00;93.10
40828;DHT22;26549;50.918;5.338;2023-04-25T15:10:34;12.80;93.50
40828;DHT22;26549;50.918;5.338;2023-04-25T15:13:00;12.70;94.00
40828;DHT22;26549;50.918;5.338;2023-04-25T15:15:26;12.60;93.60
40828;DHT22;26549;50.918;5.338;2023-04-25T15:17:52;12.70;94.10
40828;DHT22;26549;50.918;5.338;2023-04-25T15:20:19;12.80;92.90
40828;DHT22;26549;50.918;5.338;2023-04-25T15:22:45;12.20;92.80
40828;DHT22;26549;50.918;5.338;2023-04-25T15:25:15;12.00;93.20
40828;DHT22;26549;50.918;5.338;2023-04-25T15:27:43;12.20;93.20
40828;DHT22;26549;50.918;5.338;2023-04-25T15:30:12;12.50;92.60
40828;DHT22;26549;50.918;5.338;2023-04-25T15:32:41;12.40;92.70
40828;DHT22;26549;50.918;5.338;2023-04-25T15:35:07;12.50;93.10
40828;DHT22;26549;50.918;5.338;2023-04-25T15:37:34;12.50;94.00
40828;DHT22;26549;50.918;5.338;2023-04-25T15:42:39;12.90;93.60
40828;DHT22;26549;50.918;5.338;2023-04-25T15:45:06;12.60;93.70
40828;DHT22;26549;50.918;5.338;2023-04-25T15:47:34;12.50;93.90
40828;DHT22;26549;50.918;5.338;2023-04-25T15:50:01;12.30;93.90